Terminal Aerodrome Forecast
Issued by NWS

Home | Current Version | Previous Version | Text Only | Print | Product List | Glossary Off
Versions: 1 2 3 4 5 6 7 8 9 10 11 12 13 14 15 16 17 18 19 20

000
FTUS43 KTOP 200322 AAB
TAFFOE
TAF AMD
KFOE 200322Z 2003/2024 18010KT P6SM SCT020
     FM200800 16010KT 3SM SHRA BR VCTS OVC011CB
     FM201200 16009KT 4SM BR VCSH OVC013
     FM201900 20014G20KT P6SM BKN045=

USA.gov is the U.S. government's official web portal to all federal, state and local government web resources and services.